createdAt,value
2019-02-25T00:01:58.741Z,102942.17
2019-02-25T00:04:29.152Z,102947.78
2019-02-25T00:06:59.417Z,102936.59
2019-02-25T00:09:30.825Z,102941.41
2019-02-25T00:12:02.298Z,102942.20
2019-02-25T00:14:32.810Z,102942.75
2019-02-25T00:17:04.282Z,102950.03
2019-02-25T00:19:35.709Z,102957.33
2019-02-25T00:22:05.987Z,102952.27
2019-02-25T00:24:36.231Z,102953.57
2019-02-25T00:27:06.704Z,102926.97
2019-02-25T00:29:38.145Z,102926.97
2019-02-25T00:32:09.680Z,102943.28
2019-02-25T00:34:41.049Z,102938.85
2019-02-25T00:37:12.498Z,102938.85
2019-02-25T00:39:43.956Z,102921.59
2019-02-25T00:42:15.083Z,102921.59
2019-02-25T00:44:46.536Z,102927.59
2019-02-25T00:47:17.992Z,102930.73
2019-02-25T00:49:49.443Z,102927.39
2019-02-25T00:52:20.884Z,102923.07
2019-02-25T00:54:51.132Z,102925.33
2019-02-25T00:57:23.488Z,102930.69
2019-02-25T00:59:56.167Z,102927.89
2019-02-25T01:02:28.536Z,102931.97
2019-02-25T01:05:00.910Z,102931.98
2019-02-25T01:07:32.364Z,102946.55
2019-02-25T01:10:07.457Z,102945.41
2019-02-25T01:12:37.725Z,102952.13
2019-02-25T01:15:09.181Z,102955.30
2019-02-25T01:17:40.627Z,102955.32
2019-02-25T01:20:14.944Z,102940.23
2019-02-25T01:22:45.368Z,102927.58
2019-02-25T01:25:18.384Z,102922.94
2019-02-25T01:27:49.808Z,102924.47
2019-02-25T01:30:21.439Z,102933.38
2019-02-25T01:32:51.804Z,102922.58
2019-02-25T01:35:24.179Z,102912.92
2019-02-25T01:37:55.619Z,102913.73
2019-02-25T01:40:27.069Z,102918.75
2019-02-25T01:42:58.209Z,102923.61
2019-02-25T01:45:29.664Z,102918.23
2019-02-25T01:48:01.108Z,102912.48
2019-02-25T01:50:33.487Z,102916.97
2019-02-25T01:53:06.010Z,102922.94
2019-02-25T01:55:36.389Z,102910.45
2019-02-25T01:58:07.839Z,102909.33
2019-02-25T02:00:40.520Z,102906.57
2019-02-25T02:03:11.971Z,102896.88
2019-02-25T02:05:43.424Z,102891.30
2019-02-25T02:08:14.871Z,102892.59
2019-02-25T02:10:46.328Z,102891.28
2019-02-25T02:13:18.731Z,102895.77
2019-02-25T02:15:50.149Z,102891.50
2019-02-25T02:18:22.825Z,102881.10
2019-02-25T02:20:56.282Z,102873.49
2019-02-25T02:23:26.650Z,102869.37
2019-02-25T02:25:58.101Z,102872.35
2019-02-25T02:28:29.552Z,102868.82
2019-02-25T02:31:01.008Z,102868.97
2019-02-25T02:33:33.381Z,102869.71
2019-02-25T02:36:04.834Z,102868.20
2019-02-25T02:38:37.523Z,102864.66
2019-02-25T02:41:08.959Z,102859.63
2019-02-25T02:43:41.655Z,102857.02
2019-02-25T02:46:25.626Z,102861.09
2019-02-25T02:48:59.417Z,102859.42
2019-02-25T02:51:29.816Z,102857.37
2019-02-25T02:54:01.279Z,102854.05
2019-02-25T02:56:33.042Z,102850.91
2019-02-25T02:59:03.295Z,102853.32
2019-02-25T03:01:34.700Z,102859.84
2019-02-25T03:04:04.941Z,102855.78
2019-02-25T03:06:36.392Z,102865.33
2019-02-25T03:09:09.478Z,102861.83
2019-02-25T03:11:40.199Z,102861.09
2019-02-25T03:14:11.660Z,102858.66
2019-02-25T03:16:43.103Z,102860.55
2019-02-25T03:19:15.779Z,102867.22
2019-02-25T03:21:47.290Z,102880.62
2019-02-25T03:24:18.688Z,102880.43
2019-02-25T03:26:51.049Z,102876.37
2019-02-25T03:29:21.295Z,102871.34
2019-02-25T03:31:52.737Z,102873.61
2019-02-25T03:34:23.268Z,102878.61
2019-02-25T03:36:54.711Z,102874.90
2019-02-25T03:39:26.169Z,102882.54
2019-02-25T03:41:57.613Z,102887.97
2019-02-25T03:44:29.075Z,102890.38
2019-02-25T03:47:00.520Z,102895.98
2019-02-25T03:49:31.976Z,102887.42
2019-02-25T03:52:03.428Z,102884.81
2019-02-25T03:54:34.881Z,102880.15
2019-02-25T03:57:06.323Z,102887.25
2019-02-25T03:59:37.850Z,102884.63
2019-02-25T04:02:10.766Z,102885.71
2019-02-25T04:04:42.220Z,102893.16
2019-02-25T04:07:13.665Z,102895.98
2019-02-25T04:09:45.119Z,102898.20
2019-02-25T04:12:16.569Z,102899.89
2019-02-25T04:14:48.030Z,102904.55
2019-02-25T04:17:20.389Z,102900.25
2019-02-25T04:19:52.767Z,102893.91
2019-02-25T04:22:24.832Z,102900.80
2019-02-25T04:24:56.286Z,102904.14
2019-02-25T04:27:27.733Z,102891.48
2019-02-25T04:29:57.980Z,102894.81
2019-02-25T04:32:29.405Z,102886.64
2019-02-25T04:35:00.862Z,102871.91
2019-02-25T04:37:31.095Z,102866.34
2019-02-25T04:40:01.925Z,102856.50
2019-02-25T04:42:36.137Z,102858.37
2019-02-25T04:45:16.592Z,102859.88
2019-02-25T04:47:47.022Z,102855.06
2019-02-25T04:50:19.395Z,102858.40
2019-02-25T04:52:50.856Z,102859.16
2019-02-25T04:55:22.320Z,102858.41
2019-02-25T04:57:53.755Z,102848.59
2019-02-25T05:00:26.545Z,102839.64
2019-02-25T05:02:56.965Z,102848.00
2019-02-25T05:05:28.425Z,102846.53
2019-02-25T05:07:59.873Z,102852.30
2019-02-25T05:10:31.334Z,102851.73
2019-02-25T05:13:06.175Z,102850.95
2019-02-25T05:15:40.277Z,102846.66
2019-02-25T05:18:10.596Z,102848.89
2019-02-25T05:20:40.860Z,102849.85
2019-02-25T05:23:12.260Z,102868.43
2019-02-25T05:25:43.711Z,102867.70
2019-02-25T05:28:15.162Z,102875.70
2019-02-25T05:30:46.674Z,102871.24
2019-02-25T05:33:17.152Z,102882.97
2019-02-25T05:35:48.593Z,102885.05
2019-02-25T05:38:18.840Z,102886.16
2019-02-25T05:40:50.271Z,102889.69
2019-02-25T05:43:21.716Z,102887.47
2019-02-25T05:45:53.171Z,102888.97
2019-02-25T05:48:24.640Z,102885.98
2019-02-25T05:50:56.077Z,102874.63
2019-02-25T05:53:27.526Z,102875.91
2019-02-25T05:55:58.978Z,102868.98
2019-02-25T05:58:31.348Z,102872.09
2019-02-25T06:01:02.815Z,102873.55
2019-02-25T06:03:34.255Z,102878.38
2019-02-25T06:06:05.701Z,102876.66
2019-02-25T06:08:38.385Z,102883.30
2019-02-25T06:11:09.837Z,102886.43
2019-02-25T06:13:41.289Z,102894.54
2019-02-25T06:16:12.737Z,102894.50
2019-02-25T06:18:44.192Z,102900.76
2019-02-25T06:21:15.649Z,102894.05
2019-02-25T06:23:47.237Z,102893.00
2019-02-25T06:26:19.272Z,102889.33
2019-02-25T06:28:51.473Z,102884.30
2019-02-25T06:31:24.827Z,102890.00
2019-02-25T06:33:55.093Z,102889.02
2019-02-25T06:36:27.431Z,102900.77
2019-02-25T06:38:58.803Z,102906.00
2019-02-25T06:41:30.224Z,102909.84
2019-02-25T06:44:00.541Z,102902.02
2019-02-25T06:46:32.959Z,102894.27
2019-02-25T06:49:04.384Z,102900.75
2019-02-25T06:51:35.985Z,102911.17
2019-02-25T06:54:06.370Z,102911.17
2019-02-25T06:56:36.739Z,102903.48
2019-02-25T06:59:08.032Z,102893.84
2019-02-25T07:01:38.293Z,102892.20
2019-02-25T07:04:17.395Z,102893.67
2019-02-25T07:06:50.199Z,102899.43
2019-02-25T07:09:31.832Z,102909.10
2019-02-25T07:12:06.502Z,102905.69
2019-02-25T07:14:38.383Z,102911.80
2019-02-25T07:17:29.406Z,102912.52
2019-02-25T07:20:10.394Z,102905.34
2019-02-25T07:22:50.219Z,102894.01
2019-02-25T07:25:22.244Z,102878.00
2019-02-25T07:28:10.463Z,102883.63
2019-02-25T07:30:58.759Z,102875.95
2019-02-25T07:33:44.395Z,102874.51
2019-02-25T07:36:18.714Z,102874.16
2019-02-25T07:38:59.764Z,102871.07
2019-02-25T07:41:34.749Z,102875.16
2019-02-25T07:44:07.911Z,102879.04
2019-02-25T07:46:45.613Z,102892.13
2019-02-25T07:49:23.655Z,102895.34
2019-02-25T07:52:02.063Z,102900.38
2019-02-25T07:54:53.988Z,102899.27
2019-02-25T07:57:28.747Z,102895.46
2019-02-25T08:00:03.685Z,102887.95
2019-02-25T08:02:43.102Z,102877.30
2019-02-25T08:05:17.742Z,102875.65
2019-02-25T08:08:06.141Z,102866.14
2019-02-25T08:10:44.115Z,102861.89
2019-02-25T08:13:16.005Z,102849.31
2019-02-25T08:15:56.744Z,102851.58
2019-02-25T08:18:37.530Z,102851.19
2019-02-25T08:21:21.259Z,102854.28
2019-02-25T08:24:05.054Z,102840.63
2019-02-25T08:26:53.105Z,102817.36
2019-02-25T08:29:37.004Z,102805.42
2019-02-25T08:32:20.797Z,102806.80
2019-02-25T08:35:07.691Z,102817.39
2019-02-25T08:37:45.704Z,102806.52
2019-02-25T08:40:38.557Z,102802.54
2019-02-25T08:43:29.017Z,102805.73
2019-02-25T08:46:17.016Z,102810.08
2019-02-25T08:49:03.114Z,102807.45
2019-02-25T08:51:34.830Z,102806.37
2019-02-25T08:54:08.455Z,102809.13
2019-02-25T08:56:39.877Z,102799.19
2019-02-25T08:59:15.530Z,102808.03
2019-02-25T09:01:49.855Z,102805.73
2019-02-25T09:04:25.127Z,102811.94
2019-02-25T09:06:57.116Z,102798.09
2019-02-25T09:09:28.504Z,102798.98
2019-02-25T09:11:58.753Z,102805.23
2019-02-25T09:14:30.174Z,102812.34
2019-02-25T09:17:00.418Z,102805.69
2019-02-25T09:19:33.480Z,102801.20
2019-02-25T09:22:03.738Z,102796.05
2019-02-25T09:24:40.857Z,102794.20
2019-02-25T09:27:14.064Z,102793.19
2019-02-25T09:29:47.181Z,102792.52
2019-02-25T09:32:19.033Z,102787.91
2019-02-25T09:34:49.474Z,102788.67
2019-02-25T09:37:26.058Z,102790.48
2019-02-25T09:39:58.259Z,102782.56
2019-02-25T09:42:31.773Z,102774.53
2019-02-25T09:45:09.529Z,102773.62
2019-02-25T09:47:39.953Z,102769.22
2019-02-25T09:50:14.077Z,102772.23
2019-02-25T09:52:44.372Z,102770.92
2019-02-25T09:55:18.432Z,102761.95
2019-02-25T09:57:48.814Z,102775.14
2019-02-25T10:00:24.092Z,102770.77
2019-02-25T10:02:54.484Z,102767.29
2019-02-25T10:05:24.714Z,102769.47
2019-02-25T10:07:57.068Z,102775.88
2019-02-25T10:10:32.330Z,102773.73
2019-02-25T10:13:05.815Z,102774.65
2019-02-25T10:15:36.062Z,102779.36
2019-02-25T10:18:10.162Z,102774.07
2019-02-25T10:20:40.494Z,102783.47
2019-02-25T10:23:12.845Z,102776.54
2019-02-25T10:25:47.164Z,102773.25
2019-02-25T10:28:21.581Z,102765.67
2019-02-25T10:30:53.472Z,102759.04
2019-02-25T10:33:23.717Z,102749.95
2019-02-25T10:35:55.562Z,102748.73
2019-02-25T10:38:25.849Z,102736.75
2019-02-25T10:40:56.098Z,102720.34
2019-02-25T10:43:29.538Z,102709.16
2019-02-25T10:46:01.757Z,102705.66
2019-02-25T10:48:34.123Z,102695.83
2019-02-25T10:51:09.327Z,102694.01
2019-02-25T10:53:39.608Z,102678.83
2019-02-25T10:56:14.527Z,102673.45
2019-02-25T10:58:45.250Z,102681.13
2019-02-25T11:01:19.727Z,102677.33
2019-02-25T11:03:50.040Z,102671.73
2019-02-25T11:06:21.023Z,102671.81
2019-02-25T11:08:54.028Z,102665.50
2019-02-25T11:11:28.917Z,102674.11
2019-02-25T11:14:00.871Z,102669.67
2019-02-25T11:16:32.754Z,102670.20
2019-02-25T11:19:03.004Z,102671.16
2019-02-25T11:21:35.200Z,102668.16
2019-02-25T11:24:05.206Z,102663.92
2019-02-25T11:26:35.492Z,102666.98
2019-02-25T11:29:11.718Z,102666.36
2019-02-25T11:31:45.726Z,102664.97
2019-02-25T11:34:23.078Z,102663.95
2019-02-25T11:36:57.197Z,102675.55
2019-02-25T11:39:32.686Z,102683.78
2019-02-25T11:42:05.088Z,102679.52
2019-02-25T11:44:35.228Z,102675.95
2019-02-25T11:47:07.105Z,102660.92
2019-02-25T11:49:37.517Z,102649.55
2019-02-25T11:52:08.445Z,102653.33
2019-02-25T11:54:38.882Z,102654.86
2019-02-25T11:57:09.133Z,102654.76
2019-02-25T11:59:40.563Z,102653.64
2019-02-25T12:02:10.804Z,102658.55
2019-02-25T12:04:42.252Z,102652.68
2019-02-25T12:07:12.589Z,102652.17
2019-02-25T12:09:44.644Z,102651.86
2019-02-25T12:12:17.878Z,102659.42
2019-02-25T12:14:51.737Z,102655.83
2019-02-25T12:17:22.024Z,102652.17
2019-02-25T12:19:54.009Z,102644.19
2019-02-25T12:22:24.243Z,102650.52
2019-02-25T12:24:54.496Z,102641.47
2019-02-25T12:27:25.931Z,102636.31
2019-02-25T12:29:57.365Z,102630.29
2019-02-25T12:32:28.815Z,102623.64
2019-02-25T12:34:59.066Z,102620.35
2019-02-25T12:37:29.322Z,102618.16
2019-02-25T12:39:59.569Z,102599.61
2019-02-25T12:42:29.817Z,102601.02
2019-02-25T12:45:00.114Z,102597.30
2019-02-25T12:47:33.507Z,102591.92
2019-02-25T12:50:06.150Z,102576.48
2019-02-25T12:52:36.436Z,102575.11
2019-02-25T12:55:09.824Z,102569.63
2019-02-25T12:57:40.070Z,102561.00
2019-02-25T13:00:17.927Z,102560.48
2019-02-25T13:02:48.277Z,102557.86
2019-02-25T13:05:20.561Z,102550.14
2019-02-25T13:07:50.814Z,102548.69
2019-02-25T13:10:21.055Z,102549.98
2019-02-25T13:12:51.774Z,102542.39
2019-02-25T13:15:24.561Z,102535.70
2019-02-25T13:17:54.820Z,102525.28
2019-02-25T13:20:25.067Z,102524.23
2019-02-25T13:22:55.315Z,102520.36
2019-02-25T13:25:28.200Z,102514.53
2019-02-25T13:27:59.440Z,102514.53
2019-02-25T13:30:30.385Z,102513.69
2019-02-25T13:33:01.807Z,102519.27
2019-02-25T13:35:32.055Z,102506.62
2019-02-25T13:38:02.300Z,102509.68
2019-02-25T13:40:32.826Z,102496.41
2019-02-25T13:43:03.076Z,102495.30
2019-02-25T13:45:33.320Z,102512.27
2019-02-25T13:48:05.122Z,102505.63
2019-02-25T13:50:35.378Z,102511.25
2019-02-25T13:53:06.658Z,102503.50
2019-02-25T13:55:37.182Z,102505.73
2019-02-25T13:58:07.442Z,102521.87
2019-02-25T14:00:37.715Z,102523.41
2019-02-25T14:03:08.664Z,102525.33
2019-02-25T14:05:38.915Z,102515.73
2019-02-25T14:08:10.926Z,102506.62
2019-02-25T14:10:42.533Z,102504.25
2019-02-25T14:13:13.574Z,102510.58
2019-02-25T14:15:45.466Z,102500.30
2019-02-25T14:18:16.302Z,102515.48
2019-02-25T14:20:46.554Z,102515.77
2019-02-25T14:23:18.451Z,102516.73
2019-02-25T14:25:48.998Z,102522.02
2019-02-25T14:28:19.313Z,102514.82
2019-02-25T14:30:51.606Z,102504.57
2019-02-25T14:33:23.589Z,102505.02
2019-02-25T14:35:53.981Z,102503.49
2019-02-25T14:38:27.130Z,102510.39
2019-02-25T14:40:57.723Z,102508.52
2019-02-25T14:43:29.184Z,102509.98
2019-02-25T14:46:01.452Z,102517.32
2019-02-25T14:48:32.851Z,102519.70
2019-02-25T14:51:04.692Z,102518.45
2019-02-25T14:53:34.998Z,102522.02
2019-02-25T14:56:07.912Z,102536.28
2019-02-25T14:58:40.202Z,102532.31
2019-02-25T15:01:10.340Z,102533.58
2019-02-25T15:03:42.712Z,102529.52
2019-02-25T15:06:21.276Z,102536.83
2019-02-25T15:08:52.491Z,102541.13
2019-02-25T15:11:22.875Z,102532.95
2019-02-25T15:13:54.331Z,102521.83
2019-02-25T15:16:25.783Z,102514.77
2019-02-25T15:18:56.032Z,102517.59
2019-02-25T15:21:26.309Z,102518.30
2019-02-25T15:24:00.037Z,102528.39
2019-02-25T15:26:30.311Z,102523.61
2019-02-25T15:29:02.913Z,102532.88
2019-02-25T15:31:34.700Z,102525.50
2019-02-25T15:34:05.036Z,102528.00
2019-02-25T15:36:36.472Z,102534.06
2019-02-25T15:39:10.896Z,102527.95
2019-02-25T15:41:44.090Z,102535.77
2019-02-25T15:44:15.251Z,102532.90
2019-02-25T15:46:45.542Z,102536.20
2019-02-25T15:49:17.244Z,102532.19
2019-02-25T15:51:49.820Z,102533.88
2019-02-25T15:54:22.904Z,102538.69
2019-02-25T15:56:54.614Z,102550.47
2019-02-25T15:59:32.038Z,102542.25
2019-02-25T16:02:03.491Z,102553.73
2019-02-25T16:04:38.103Z,102541.64
2019-02-25T16:07:10.523Z,102538.66
2019-02-25T16:09:40.998Z,102541.33
2019-02-25T16:12:11.249Z,102539.30
2019-02-25T16:14:42.243Z,102527.51
2019-02-25T16:17:13.718Z,102519.91
2019-02-25T16:19:47.815Z,102522.42
2019-02-25T16:22:19.992Z,102533.31
2019-02-25T16:24:50.421Z,102534.26
2019-02-25T16:27:23.246Z,102534.89
2019-02-25T16:29:58.064Z,102536.30
2019-02-25T16:32:31.841Z,102540.00
2019-02-25T16:35:03.167Z,102539.94
2019-02-25T16:37:35.525Z,102535.53
2019-02-25T16:40:17.616Z,102533.25
2019-02-25T16:42:48.316Z,102533.11
2019-02-25T16:45:21.412Z,102531.06
2019-02-25T16:47:51.834Z,102529.98
2019-02-25T16:50:24.751Z,102532.98
2019-02-25T16:52:56.907Z,102526.69
2019-02-25T16:55:29.308Z,102532.53
2019-02-25T16:58:03.597Z,102523.84
2019-02-25T17:00:35.460Z,102523.08
2019-02-25T17:03:06.660Z,102527.19
2019-02-25T17:05:40.314Z,102519.16
2019-02-25T17:08:12.891Z,102527.11
2019-02-25T17:10:43.194Z,102540.16
2019-02-25T17:13:15.437Z,102528.03
2019-02-25T17:15:47.652Z,102527.27
2019-02-25T17:18:20.612Z,102526.82
2019-02-25T17:20:52.073Z,102530.27
2019-02-25T17:23:27.195Z,102536.17
2019-02-25T17:25:56.514Z,102529.02
2019-02-25T17:28:27.448Z,102527.66
2019-02-25T17:30:57.884Z,102522.67
2019-02-25T17:33:28.762Z,102517.66
2019-02-25T17:36:00.237Z,102516.08
2019-02-25T17:38:30.668Z,102518.97
2019-02-25T17:41:03.308Z,102519.62
2019-02-25T17:43:34.247Z,102520.03
2019-02-25T17:46:06.974Z,102511.91
2019-02-25T17:48:39.209Z,102509.01
2019-02-25T17:51:10.400Z,102503.88
2019-02-25T17:53:41.532Z,102503.48
2019-02-25T17:56:13.924Z,102503.77
2019-02-25T17:58:46.867Z,102509.70
2019-02-25T18:01:19.670Z,102506.41
2019-02-25T18:03:53.557Z,102507.06
2019-02-25T18:06:29.604Z,102509.08
2019-02-25T18:08:58.247Z,102505.53
2019-02-25T18:11:30.702Z,102507.65
2019-02-25T18:14:01.127Z,102507.56
2019-02-25T18:16:33.191Z,102510.43
2019-02-25T18:19:03.421Z,102511.14
2019-02-25T18:21:34.864Z,102517.33
2019-02-25T18:24:05.117Z,102509.95
2019-02-25T18:26:37.772Z,102503.11
2019-02-25T18:29:09.424Z,102508.16
2019-02-25T18:31:44.972Z,102508.80
2019-02-25T18:34:16.439Z,102504.48
2019-02-25T18:36:48.945Z,102499.97
2019-02-25T18:39:23.135Z,102496.56
2019-02-25T18:41:55.556Z,102492.62
2019-02-25T18:44:29.105Z,102489.44
2019-02-25T18:46:59.990Z,102479.30
2019-02-25T18:49:32.518Z,102479.30
2019-02-25T18:52:02.437Z,102476.81
2019-02-25T18:54:39.656Z,102483.25
2019-02-25T18:57:11.812Z,102470.77
2019-02-25T18:59:43.238Z,102471.80
2019-02-25T19:02:16.651Z,102474.29
2019-02-25T19:04:48.140Z,102465.33
2019-02-25T19:07:20.225Z,102474.17
2019-02-25T19:09:51.675Z,102464.41
2019-02-25T19:12:23.162Z,102466.27
2019-02-25T19:14:55.740Z,102461.38
2019-02-25T19:17:27.519Z,102459.55
2019-02-25T19:19:58.574Z,102469.02
2019-02-25T19:22:30.608Z,102459.66
2019-02-25T19:25:00.909Z,102459.68
2019-02-25T19:27:34.110Z,102461.66
2019-02-25T19:30:10.003Z,102467.05
2019-02-25T19:32:41.235Z,102464.95
2019-02-25T19:35:12.101Z,102467.34
2019-02-25T19:37:44.425Z,102468.66
2019-02-25T19:40:26.691Z,102452.47
2019-02-25T19:42:58.816Z,102456.28
2019-02-25T19:45:29.337Z,102452.06
2019-02-25T19:48:02.487Z,102459.42
2019-02-25T19:50:34.807Z,102456.02
2019-02-25T19:53:07.640Z,102446.80
2019-02-25T19:55:40.461Z,102444.70
2019-02-25T19:58:11.878Z,102444.41
2019-02-25T20:00:44.970Z,102443.61
2019-02-25T20:03:15.256Z,102442.18
2019-02-25T20:05:51.979Z,102445.45
2019-02-25T20:08:23.253Z,102447.20
2019-02-25T20:10:56.248Z,102447.07
2019-02-25T20:13:28.917Z,102448.52
2019-02-25T20:16:07.858Z,102448.64
2019-02-25T20:18:37.722Z,102444.57
2019-02-25T20:21:09.335Z,102441.38
2019-02-25T20:23:40.804Z,102440.20
2019-02-25T20:26:13.487Z,102438.62
2019-02-25T20:28:46.215Z,102442.85
2019-02-25T20:31:16.818Z,102433.07
2019-02-25T20:33:47.214Z,102437.57
2019-02-25T20:36:21.362Z,102430.19
2019-02-25T20:38:49.493Z,102426.22
2019-02-25T20:41:26.228Z,102424.75
2019-02-25T20:44:00.715Z,102410.80
2019-02-25T20:46:35.316Z,102406.05
2019-02-25T20:49:07.259Z,102407.23
2019-02-25T20:51:40.103Z,102404.84
2019-02-25T20:54:17.769Z,102399.58
2019-02-25T20:56:55.508Z,102391.63
2019-02-25T20:59:32.325Z,102378.45
2019-02-25T21:02:04.849Z,102380.98
2019-02-25T21:04:43.348Z,102387.25
2019-02-25T21:07:18.971Z,102372.53
2019-02-25T21:09:52.826Z,102364.69
2019-02-25T21:12:23.235Z,102362.75
2019-02-25T21:14:54.678Z,102368.39
2019-02-25T21:17:35.550Z,102367.33
2019-02-25T21:20:14.615Z,102362.56
2019-02-25T21:22:52.442Z,102359.67
2019-02-25T21:25:24.439Z,102367.53
2019-02-25T21:27:55.174Z,102354.34
2019-02-25T21:30:24.868Z,102353.80
2019-02-25T21:32:59.056Z,102350.23
2019-02-25T21:35:30.125Z,102360.24
2019-02-25T21:38:02.486Z,102356.43
2019-02-25T21:40:32.906Z,102359.33
2019-02-25T21:43:06.549Z,102373.17
2019-02-25T21:45:37.328Z,102362.42
2019-02-25T21:48:13.939Z,102365.87
2019-02-25T21:50:45.400Z,102368.00
2019-02-25T21:53:18.286Z,102365.77
2019-02-25T21:55:51.092Z,102362.72
2019-02-25T21:58:23.194Z,102373.12
2019-02-25T22:00:53.326Z,102371.90
2019-02-25T22:03:24.787Z,102376.26
2019-02-25T22:05:58.751Z,102375.45
2019-02-25T22:08:31.364Z,102365.55
2019-02-25T22:11:12.572Z,102362.52
2019-02-25T22:13:34.587Z,102361.09
2019-02-25T22:16:08.045Z,102362.77
2019-02-25T22:18:41.972Z,102366.63
2019-02-25T22:21:14.208Z,102357.54
2019-02-25T22:23:44.670Z,102359.27
2019-02-25T22:26:14.927Z,102355.51
2019-02-25T22:28:46.362Z,102358.95
2019-02-25T22:31:18.194Z,102355.76
2019-02-25T22:33:50.326Z,102351.91
2019-02-25T22:36:21.761Z,102357.53
2019-02-25T22:38:52.170Z,102359.91
2019-02-25T22:41:25.090Z,102350.82
2019-02-25T22:43:55.659Z,102343.52
2019-02-25T22:46:29.791Z,102350.82
2019-02-25T22:49:00.864Z,102341.13
2019-02-25T22:51:33.054Z,102341.38
2019-02-25T22:54:03.637Z,102341.62
2019-02-25T22:56:35.392Z,102346.59
2019-02-25T22:59:06.839Z,102345.58
2019-02-25T23:01:38.452Z,102342.64
2019-02-25T23:04:11.151Z,102351.10
2019-02-25T23:06:43.917Z,102346.59
2019-02-25T23:09:14.379Z,102345.42
2019-02-25T23:11:48.205Z,102345.82
2019-02-25T23:14:18.296Z,102350.40
2019-02-25T23:16:49.747Z,102340.65
2019-02-25T23:19:22.525Z,102334.70
2019-02-25T23:21:52.971Z,102351.54
2019-02-25T23:24:27.986Z,102356.25
2019-02-25T23:26:59.515Z,102344.87
2019-02-25T23:29:29.592Z,102343.05
2019-02-25T23:32:02.534Z,102351.54
2019-02-25T23:34:35.900Z,102343.88
2019-02-25T23:37:08.356Z,102340.73
2019-02-25T23:39:40.520Z,102337.18
2019-02-25T23:42:13.496Z,102335.34
2019-02-25T23:44:43.707Z,102331.55
2019-02-25T23:47:16.099Z,102328.10
2019-02-25T23:49:48.633Z,102332.87
2019-02-25T23:52:19.005Z,102344.20
2019-02-25T23:54:51.969Z,102332.33
2019-02-25T23:57:23.937Z,102334.19
2019-02-25T23:59:55.777Z,102327.05
